createdAt,value
2018-12-27T00:00:41.647Z,15.37
2018-12-27T00:03:22.244Z,16.00
2018-12-27T00:06:03.093Z,16.13
2018-12-27T00:08:43.804Z,16.07
2018-12-27T00:11:24.530Z,14.67
2018-12-27T00:17:08.574Z,14.07
2018-12-27T00:19:57.019Z,15.77
2018-12-27T00:22:45.450Z,15.23
2018-12-27T00:25:33.865Z,14.97
2018-12-27T00:28:22.244Z,14.67
2018-12-27T00:31:10.757Z,14.47
2018-12-27T00:33:59.291Z,14.93
2018-12-27T00:36:48.033Z,14.77
2018-12-27T00:39:36.714Z,14.83
2018-12-27T00:42:25.205Z,13.80
2018-12-27T00:48:21.245Z,14.37
2018-12-27T00:54:03.719Z,14.47
2018-12-27T00:56:44.425Z,14.27
2018-12-27T00:59:25.870Z,14.40
2018-12-27T01:02:06.435Z,13.47
2018-12-27T01:04:47.690Z,14.30
2018-12-27T01:07:28.448Z,13.90
2018-12-27T01:10:09.350Z,14.30
2018-12-27T01:12:50.230Z,14.90
2018-12-27T01:15:30.889Z,13.93
2018-12-27T01:18:11.496Z,12.67
2018-12-27T01:20:52.882Z,13.43
2018-12-27T01:23:33.633Z,13.47
2018-12-27T01:26:14.366Z,13.73
2018-12-27T01:28:55.062Z,13.93
2018-12-27T01:31:35.644Z,13.77
2018-12-27T01:34:16.763Z,14.63
2018-12-27T01:36:58.205Z,14.27
2018-12-27T01:39:38.936Z,13.80
2018-12-27T01:42:19.847Z,13.77
2018-12-27T01:45:00.661Z,14.20
2018-12-27T01:47:41.367Z,12.83
2018-12-27T01:50:21.981Z,12.47
2018-12-27T01:53:03.047Z,12.43
2018-12-27T01:55:44.405Z,11.33
2018-12-27T01:58:25.671Z,12.13
2018-12-27T02:01:06.505Z,11.50
2018-12-27T02:03:47.916Z,11.27
2018-12-27T02:06:29.107Z,12.20
2018-12-27T02:09:10.479Z,12.13
2018-12-27T02:11:51.077Z,11.87
2018-12-27T02:14:32.446Z,11.20
2018-12-27T02:17:13.915Z,12.00
2018-12-27T02:19:54.497Z,11.97
2018-12-27T02:22:36.027Z,12.43
2018-12-27T02:25:16.716Z,12.53
2018-12-27T02:27:57.941Z,12.67
2018-12-27T02:30:39.327Z,10.87
2018-12-27T02:33:20.808Z,12.60
2018-12-27T02:36:02.062Z,11.33
2018-12-27T02:38:43.596Z,12.20
2018-12-27T02:41:24.234Z,11.67
2018-12-27T02:44:05.349Z,12.50
2018-12-27T02:46:46.720Z,12.50
2018-12-27T02:49:28.122Z,11.47
2018-12-27T02:52:08.919Z,11.83
2018-12-27T02:54:49.697Z,12.57
2018-12-27T02:57:31.177Z,11.70
2018-12-27T03:00:12.548Z,11.90
2018-12-27T03:02:53.382Z,11.97
2018-12-27T03:05:34.128Z,11.47
2018-12-27T03:08:14.773Z,11.50
2018-12-27T03:10:55.514Z,10.77
2018-12-27T03:13:36.983Z,10.60
2018-12-27T03:16:18.480Z,10.23
2018-12-27T03:18:59.720Z,9.87
2018-12-27T03:21:41.189Z,10.37
2018-12-27T03:24:21.895Z,10.80
2018-12-27T03:27:03.352Z,11.30
2018-12-27T03:29:44.258Z,11.63
2018-12-27T03:32:25.164Z,11.37
2018-12-27T03:35:06.338Z,10.60
2018-12-27T03:37:36.477Z,11.37
2018-12-27T03:40:06.621Z,9.63
2018-12-27T03:42:55.330Z,11.10
2018-12-27T03:45:43.824Z,12.30
2018-12-27T03:51:41.614Z,10.63
2018-12-27T03:57:37.780Z,11.57
2018-12-27T04:03:25.584Z,12.07
2018-12-27T04:09:07.678Z,11.30
2018-12-27T04:17:43.830Z,11.70
2018-12-27T04:23:27.780Z,11.93
2018-12-27T04:31:58.081Z,11.37
2018-12-27T04:34:38.916Z,11.30
2018-12-27T04:37:19.725Z,11.60
2018-12-27T04:40:00.733Z,11.23
2018-12-27T04:42:41.909Z,11.10
2018-12-27T04:45:23.359Z,11.20
2018-12-27T04:48:04.893Z,10.77
2018-12-27T04:50:45.441Z,10.67
2018-12-27T04:53:26.334Z,11.80
2018-12-27T04:58:50.912Z,11.30
2018-12-27T05:01:31.858Z,11.67
2018-12-27T05:04:18.064Z,10.93
2018-12-27T05:06:55.273Z,11.13
2018-12-27T05:09:24.668Z,10.30
2018-12-27T05:11:53.974Z,11.93
2018-12-27T05:14:23.294Z,11.97
2018-12-27T05:16:52.595Z,12.00
2018-12-27T05:19:21.969Z,11.40
2018-12-27T05:21:51.276Z,10.43
2018-12-27T05:24:20.602Z,11.33
2018-12-27T05:26:49.978Z,11.30
2018-12-27T05:29:19.337Z,11.53
2018-12-27T05:31:48.682Z,10.63
2018-12-27T05:34:26.014Z,10.33
2018-12-27T05:36:49.111Z,10.37
2018-12-27T05:39:18.438Z,9.53
2018-12-27T05:41:47.757Z,10.00
2018-12-27T05:44:17.086Z,10.63
2018-12-27T05:46:46.440Z,11.17
2018-12-27T05:49:15.860Z,9.80
2018-12-27T05:51:45.164Z,10.13
2018-12-27T05:54:14.641Z,10.47
2018-12-27T05:56:43.963Z,11.00
2018-12-27T05:59:13.356Z,10.67
2018-12-27T06:01:42.772Z,10.97
2018-12-27T06:04:12.209Z,10.87
2018-12-27T06:06:41.661Z,11.63
2018-12-27T06:09:11.150Z,10.67
2018-12-27T06:11:40.612Z,11.90
2018-12-27T06:14:10.136Z,10.27
2018-12-27T06:16:39.603Z,10.57
2018-12-27T06:19:09.104Z,10.33
2018-12-27T06:21:38.600Z,9.57
2018-12-27T06:24:08.243Z,9.93
2018-12-27T06:26:37.643Z,10.20
2018-12-27T06:29:07.152Z,9.67
2018-12-27T06:31:36.647Z,11.40
2018-12-27T06:34:06.136Z,10.60
2018-12-27T06:36:35.503Z,9.30
2018-12-27T06:39:06.032Z,9.83
2018-12-27T06:41:35.440Z,9.70
2018-12-27T06:44:04.840Z,11.23
2018-12-27T06:46:34.379Z,10.03
2018-12-27T06:49:03.942Z,10.73
2018-12-27T06:51:33.374Z,11.07
2018-12-27T06:54:02.808Z,9.67
2018-12-27T06:56:32.227Z,9.77
2018-12-27T06:59:01.743Z,9.27
2018-12-27T07:01:31.198Z,9.50
2018-12-27T07:04:00.731Z,9.30
2018-12-27T07:06:30.159Z,10.13
2018-12-27T07:08:59.673Z,9.50
2018-12-27T07:11:29.080Z,9.23
2018-12-27T07:13:58.617Z,9.83
2018-12-27T07:16:28.027Z,9.87
2018-12-27T07:18:58.331Z,9.17
2018-12-27T07:21:27.770Z,10.53
2018-12-27T07:23:57.388Z,10.70
2018-12-27T07:26:26.821Z,9.27
2018-12-27T07:28:56.159Z,9.63
2018-12-27T07:31:25.765Z,10.33
2018-12-27T07:33:55.186Z,9.80
2018-12-27T07:36:24.747Z,10.17
2018-12-27T07:38:54.321Z,11.70
2018-12-27T07:41:23.727Z,10.17
2018-12-27T07:43:53.225Z,10.40
2018-12-27T07:46:22.784Z,10.17
2018-12-27T07:48:52.125Z,9.60
2018-12-27T07:51:21.468Z,10.20
2018-12-27T07:53:50.809Z,10.03
2018-12-27T07:56:20.220Z,9.90
2018-12-27T07:58:49.709Z,9.97
2018-12-27T08:01:19.151Z,8.40
2018-12-27T08:03:48.504Z,8.93
2018-12-27T08:06:18.003Z,7.90
2018-12-27T08:08:47.313Z,8.50
2018-12-27T08:11:16.861Z,8.27
2018-12-27T08:13:46.291Z,8.40
2018-12-27T08:16:16.054Z,8.80
2018-12-27T08:18:45.482Z,8.17
2018-12-27T08:21:14.982Z,6.90
2018-12-27T08:23:44.371Z,7.50
2018-12-27T08:26:13.908Z,8.13
2018-12-27T08:28:43.245Z,8.30
2018-12-27T08:31:12.732Z,8.60
2018-12-27T08:33:42.237Z,8.07
2018-12-27T08:36:11.798Z,7.90
2018-12-27T08:38:41.158Z,8.10
2018-12-27T08:41:10.586Z,7.80
2018-12-27T08:43:40.093Z,8.40
2018-12-27T08:46:09.637Z,8.27
2018-12-27T08:48:39.034Z,7.90
2018-12-27T08:51:08.335Z,8.03
2018-12-27T08:53:37.737Z,9.03
2018-12-27T08:56:07.133Z,8.40
2018-12-27T08:58:36.808Z,8.03
2018-12-27T09:01:06.365Z,7.97
2018-12-27T09:03:35.820Z,7.27
2018-12-27T09:06:05.385Z,8.27
2018-12-27T09:08:34.838Z,8.30
2018-12-27T09:11:04.523Z,8.47
2018-12-27T09:13:34.871Z,9.10
2018-12-27T09:16:04.304Z,8.77
2018-12-27T09:18:33.771Z,9.67
2018-12-27T09:21:04.060Z,9.00
2018-12-27T09:23:33.527Z,9.20
2018-12-27T09:26:03.110Z,10.80
2018-12-27T09:28:32.746Z,9.77
2018-12-27T09:31:02.368Z,9.97
2018-12-27T09:33:32.050Z,10.80
2018-12-27T09:36:01.715Z,9.37
2018-12-27T09:38:31.276Z,8.60
2018-12-27T09:41:00.885Z,8.97
2018-12-27T09:43:30.579Z,7.67
2018-12-27T09:46:00.184Z,7.50
2018-12-27T09:48:29.729Z,7.73
2018-12-27T09:50:59.276Z,7.10
2018-12-27T09:53:28.721Z,8.10
2018-12-27T09:55:58.270Z,7.13
2018-12-27T09:58:27.827Z,6.40
2018-12-27T10:00:57.184Z,8.30
2018-12-27T10:03:26.779Z,7.63
2018-12-27T10:05:56.235Z,7.73
2018-12-27T10:08:25.666Z,8.33
2018-12-27T10:10:55.152Z,8.07
2018-12-27T10:13:24.597Z,8.20
2018-12-27T10:15:54.279Z,8.13
2018-12-27T10:18:23.770Z,8.10
2018-12-27T10:20:53.473Z,8.10
2018-12-27T10:23:23.001Z,8.20
2018-12-27T10:25:52.823Z,6.80
2018-12-27T10:28:22.477Z,8.17
2018-12-27T10:30:52.014Z,7.37
2018-12-27T10:33:21.643Z,7.13
2018-12-27T10:35:51.100Z,7.93
2018-12-27T10:38:20.593Z,7.23
2018-12-27T10:40:49.911Z,6.63
2018-12-27T10:43:19.630Z,7.53
2018-12-27T10:45:49.088Z,6.83
2018-12-27T10:48:18.762Z,7.87
2018-12-27T10:50:48.342Z,7.70
2018-12-27T10:53:17.888Z,7.20
2018-12-27T10:55:47.365Z,7.13
2018-12-27T10:58:17.024Z,7.20
2018-12-27T11:00:48.617Z,7.07
2018-12-27T11:03:18.248Z,6.40
2018-12-27T11:05:48.853Z,6.73
2018-12-27T11:08:18.642Z,7.17
2018-12-27T11:10:48.419Z,7.27
2018-12-27T11:13:17.925Z,7.17
2018-12-27T11:15:47.614Z,6.70
2018-12-27T11:18:17.352Z,7.10
2018-12-27T11:20:46.903Z,6.50
2018-12-27T11:23:16.741Z,6.33
2018-12-27T11:25:46.266Z,6.50
2018-12-27T11:28:16.154Z,7.17
2018-12-27T11:30:45.715Z,6.97
2018-12-27T11:33:15.369Z,7.17
2018-12-27T11:35:44.927Z,6.37
2018-12-27T11:38:14.551Z,6.20
2018-12-27T11:40:44.227Z,7.20
2018-12-27T11:43:13.832Z,6.67
2018-12-27T11:45:43.432Z,6.63
2018-12-27T11:48:13.127Z,5.50
2018-12-27T11:50:42.706Z,6.27
2018-12-27T11:53:12.170Z,6.30
2018-12-27T11:55:43.535Z,6.13
2018-12-27T11:58:13.234Z,7.07
2018-12-27T12:00:42.824Z,7.43
2018-12-27T12:03:12.558Z,6.13
2018-12-27T12:05:42.377Z,7.65
2018-12-27T12:08:11.982Z,6.33
2018-12-27T12:10:41.779Z,6.93
2018-12-27T12:13:11.433Z,6.13
2018-12-27T12:15:41.107Z,6.63
2018-12-27T12:18:10.724Z,6.07
2018-12-27T12:20:40.251Z,6.43
2018-12-27T12:23:09.946Z,7.70
2018-12-27T12:25:39.643Z,6.23
2018-12-27T12:28:09.268Z,6.03
2018-12-27T12:30:38.714Z,6.37
2018-12-27T12:33:08.124Z,6.70
2018-12-27T12:35:37.588Z,7.37
2018-12-27T12:38:07.121Z,7.27
2018-12-27T12:40:36.583Z,6.47
2018-12-27T12:43:06.072Z,6.90
2018-12-27T12:45:35.421Z,7.13
2018-12-27T12:48:05.142Z,6.67
2018-12-27T12:50:34.665Z,7.40
2018-12-27T12:53:04.155Z,7.83
2018-12-27T12:55:33.602Z,8.13
2018-12-27T12:58:03.083Z,8.23
2018-12-27T13:00:32.636Z,7.97
2018-12-27T13:03:02.053Z,6.60
2018-12-27T13:05:31.582Z,7.27
2018-12-27T13:08:01.006Z,5.93
2018-12-27T13:10:30.412Z,7.40
2018-12-27T13:12:59.860Z,6.47
2018-12-27T13:15:29.192Z,6.47
2018-12-27T13:17:58.554Z,6.60
2018-12-27T13:20:27.935Z,7.27
2018-12-27T13:22:57.354Z,6.30
2018-12-27T13:25:26.718Z,6.73
2018-12-27T13:27:56.197Z,6.70
2018-12-27T13:30:25.724Z,6.00
2018-12-27T13:32:55.147Z,6.40
2018-12-27T13:35:24.525Z,6.00
2018-12-27T13:37:53.887Z,6.70
2018-12-27T13:40:23.282Z,6.10
2018-12-27T13:42:52.656Z,6.33
2018-12-27T13:45:22.045Z,6.33
2018-12-27T13:47:51.484Z,7.60
2018-12-27T13:50:21.017Z,7.70
2018-12-27T13:52:50.534Z,7.10
2018-12-27T13:55:19.926Z,6.60
2018-12-27T13:57:49.303Z,6.87
2018-12-27T14:00:18.810Z,7.27
2018-12-27T14:02:48.250Z,6.57
2018-12-27T14:05:17.674Z,7.40
2018-12-27T14:07:47.090Z,8.03
2018-12-27T14:10:16.517Z,6.30
2018-12-27T14:12:45.921Z,6.70
2018-12-27T14:15:15.344Z,8.00
2018-12-27T14:17:44.893Z,8.07
2018-12-27T14:20:14.588Z,6.83
2018-12-27T14:22:43.997Z,7.50
2018-12-27T14:25:13.329Z,7.20
2018-12-27T14:27:42.711Z,6.13
2018-12-27T14:30:12.144Z,7.63
2018-12-27T14:32:41.543Z,9.87
2018-12-27T14:35:10.862Z,7.03
2018-12-27T14:37:40.310Z,8.77
2018-12-27T14:40:10.123Z,7.90
2018-12-27T14:42:39.848Z,8.17
2018-12-27T14:45:10.708Z,8.03
2018-12-27T14:47:40.134Z,8.00
2018-12-27T14:50:09.539Z,8.93
2018-12-27T14:52:39.096Z,8.97
2018-12-27T14:55:08.427Z,8.43
2018-12-27T14:57:37.958Z,8.47
2018-12-27T15:00:08.943Z,8.53
2018-12-27T15:02:38.371Z,8.23
2018-12-27T15:05:07.782Z,8.53
2018-12-27T15:07:37.244Z,8.80
2018-12-27T15:10:08.287Z,8.83
2018-12-27T15:12:37.649Z,9.00
2018-12-27T15:15:07.036Z,8.30
2018-12-27T15:17:36.615Z,10.23
2018-12-27T15:20:06.487Z,10.90
2018-12-27T15:22:35.843Z,10.77
2018-12-27T15:25:05.277Z,10.20
2018-12-27T15:27:34.595Z,9.83
2018-12-27T15:30:03.959Z,9.63
2018-12-27T15:32:33.320Z,9.73
2018-12-27T15:35:02.726Z,9.40
2018-12-27T15:37:32.048Z,10.00
2018-12-27T15:40:01.438Z,11.27
2018-12-27T15:42:30.834Z,9.90
2018-12-27T15:45:00.244Z,9.87
2018-12-27T15:47:29.647Z,8.57
2018-12-27T15:49:58.998Z,10.20
2018-12-27T15:52:28.437Z,10.37
2018-12-27T15:54:57.784Z,10.10
2018-12-27T15:57:27.176Z,10.33
2018-12-27T15:59:56.645Z,10.77
2018-12-27T16:02:26.052Z,10.30
2018-12-27T16:04:55.549Z,11.17
2018-12-27T16:07:24.937Z,10.93
2018-12-27T16:09:54.435Z,12.80
2018-12-27T16:12:23.853Z,13.70
2018-12-27T16:14:53.218Z,13.80
2018-12-27T16:17:22.599Z,12.80
2018-12-27T16:19:51.915Z,13.10
2018-12-27T16:22:21.524Z,13.13
2018-12-27T16:24:50.886Z,11.47
2018-12-27T16:27:20.299Z,10.47
2018-12-27T16:29:49.671Z,12.40
2018-12-27T16:32:20.250Z,12.13
2018-12-27T16:34:49.624Z,14.03
2018-12-27T16:37:19.045Z,15.77
2018-12-27T16:39:48.364Z,12.30
2018-12-27T16:42:21.852Z,14.00
2018-12-27T16:44:48.876Z,13.33
2018-12-27T16:47:18.293Z,13.63
2018-12-27T16:49:49.801Z,13.63
2018-12-27T16:52:19.219Z,13.07
2018-12-27T16:54:48.703Z,13.63
2018-12-27T16:57:19.901Z,13.73
2018-12-27T16:59:49.332Z,13.87
2018-12-27T17:02:18.699Z,16.13
2018-12-27T17:04:48.200Z,16.37
2018-12-27T17:07:17.593Z,16.70
2018-12-27T17:09:46.982Z,17.50
2018-12-27T17:12:16.432Z,16.80
2018-12-27T17:14:45.838Z,16.60
2018-12-27T17:17:15.224Z,15.87
2018-12-27T17:19:44.754Z,15.23
2018-12-27T17:22:14.171Z,16.50
2018-12-27T17:24:43.589Z,16.60
2018-12-27T17:27:12.937Z,17.77
2018-12-27T17:29:42.356Z,16.77
2018-12-27T17:32:11.744Z,16.27
2018-12-27T17:34:41.131Z,15.63
2018-12-27T17:37:10.529Z,14.20
2018-12-27T17:39:39.861Z,13.93
2018-12-27T17:42:09.306Z,15.13
2018-12-27T17:44:38.665Z,12.47
2018-12-27T17:47:08.089Z,11.93
2018-12-27T17:49:37.555Z,12.00
2018-12-27T17:52:07.161Z,12.10
2018-12-27T17:54:36.514Z,12.53
2018-12-27T17:57:05.998Z,12.73
2018-12-27T17:59:35.402Z,13.37
2018-12-27T18:02:04.786Z,14.37
2018-12-27T18:04:34.147Z,16.57
2018-12-27T18:07:03.542Z,16.60
2018-12-27T18:09:32.949Z,23.30
2018-12-27T18:12:02.357Z,15.63
2018-12-27T18:14:31.951Z,12.70
2018-12-27T18:17:01.316Z,12.50
2018-12-27T18:19:30.803Z,12.80
2018-12-27T18:22:00.203Z,11.57
2018-12-27T18:24:29.557Z,12.63
2018-12-27T18:26:58.929Z,12.20
2018-12-27T18:29:28.455Z,12.57
2018-12-27T18:31:57.884Z,13.77
2018-12-27T18:34:27.331Z,12.73
2018-12-27T18:36:56.745Z,12.67
2018-12-27T18:39:26.096Z,13.13
2018-12-27T18:41:55.533Z,13.80
2018-12-27T18:44:24.972Z,12.63
2018-12-27T18:46:54.428Z,14.20
2018-12-27T18:49:23.905Z,16.33
2018-12-27T18:51:53.341Z,15.43
2018-12-27T18:54:22.708Z,13.40
2018-12-27T18:56:52.023Z,13.93
2018-12-27T18:59:21.388Z,13.63
2018-12-27T19:01:50.788Z,15.23
2018-12-27T19:04:20.145Z,13.53
2018-12-27T19:06:49.563Z,14.10
2018-12-27T19:09:19.091Z,13.50
2018-12-27T19:12:37.183Z,14.07
2018-12-27T19:15:13.251Z,14.27
2018-12-27T19:18:07.605Z,13.57
2018-12-27T19:20:39.210Z,14.63
2018-12-27T19:23:19.541Z,14.03
2018-12-27T19:25:48.917Z,13.27
2018-12-27T19:28:18.290Z,15.10
2018-12-27T19:30:47.713Z,16.23
2018-12-27T19:33:17.188Z,14.30
2018-12-27T19:35:46.661Z,16.10
2018-12-27T19:38:15.982Z,14.77
2018-12-27T19:40:45.350Z,14.63
2018-12-27T19:43:14.836Z,14.87
2018-12-27T19:45:44.195Z,14.30
2018-12-27T19:48:13.616Z,16.13
2018-12-27T19:50:43.058Z,14.13
2018-12-27T19:53:12.401Z,13.73
2018-12-27T19:55:41.877Z,14.63
2018-12-27T19:58:11.294Z,16.13
2018-12-27T20:00:40.884Z,13.97
2018-12-27T20:03:10.264Z,16.07
2018-12-27T20:05:39.731Z,14.07
2018-12-27T20:08:09.073Z,15.17
2018-12-27T20:10:38.462Z,14.73
2018-12-27T20:13:07.975Z,15.77
2018-12-27T20:15:37.329Z,15.30
2018-12-27T20:18:06.723Z,14.50
2018-12-27T20:20:36.155Z,13.93
2018-12-27T20:23:05.695Z,13.93
2018-12-27T20:25:35.136Z,12.90
2018-12-27T20:28:04.565Z,12.83
2018-12-27T20:30:34.083Z,12.83
2018-12-27T20:33:03.449Z,13.17
2018-12-27T20:35:32.823Z,13.57
2018-12-27T20:38:06.598Z,13.30
2018-12-27T20:40:33.375Z,14.03
2018-12-27T20:43:02.754Z,13.10
2018-12-27T20:45:32.210Z,13.43
2018-12-27T20:48:01.622Z,12.13
2018-12-27T20:50:31.208Z,10.43
2018-12-27T20:53:00.726Z,11.77
2018-12-27T20:55:30.246Z,11.97
2018-12-27T20:57:59.771Z,12.70
2018-12-27T21:00:29.148Z,12.77
2018-12-27T21:02:58.522Z,11.97
2018-12-27T21:05:27.967Z,11.23
2018-12-27T21:07:57.456Z,12.50
2018-12-27T21:10:26.873Z,11.90
2018-12-27T21:12:56.362Z,11.83
2018-12-27T21:15:26.924Z,11.43
2018-12-27T21:17:56.440Z,11.37
2018-12-27T21:20:25.867Z,11.33
2018-12-27T21:22:55.235Z,11.73
2018-12-27T21:25:24.722Z,12.07
2018-12-27T21:27:54.066Z,11.67
2018-12-27T21:30:23.448Z,10.50
2018-12-27T21:32:52.916Z,11.37
2018-12-27T21:35:22.239Z,10.87
2018-12-27T21:37:51.552Z,11.60
2018-12-27T21:40:20.940Z,11.60
2018-12-27T21:42:50.283Z,11.80
2018-12-27T21:45:19.714Z,10.10
2018-12-27T21:47:49.060Z,12.07
2018-12-27T21:50:18.446Z,12.13
2018-12-27T21:52:47.864Z,9.77
2018-12-27T21:55:17.183Z,10.50
2018-12-27T21:57:46.558Z,10.93
2018-12-27T22:00:16.100Z,9.87
2018-12-27T22:02:45.643Z,10.73
2018-12-27T22:05:15.203Z,10.40
2018-12-27T22:07:44.754Z,10.73
2018-12-27T22:10:14.146Z,10.77
2018-12-27T22:12:43.689Z,10.60
2018-12-27T22:15:13.100Z,10.60
2018-12-27T22:17:42.708Z,9.90
2018-12-27T22:20:12.203Z,10.33
2018-12-27T22:22:41.677Z,10.77
2018-12-27T22:25:11.012Z,10.73
2018-12-27T22:27:40.440Z,10.30
2018-12-27T22:30:09.914Z,9.80
2018-12-27T22:32:39.363Z,10.67
2018-12-27T22:35:08.735Z,11.53
2018-12-27T22:37:38.079Z,10.70
2018-12-27T22:40:07.501Z,9.87
2018-12-27T22:42:37.263Z,9.83
2018-12-27T22:45:06.734Z,11.40
2018-12-27T22:47:36.136Z,12.10
2018-12-27T22:50:06.023Z,12.57
2018-12-27T22:52:35.357Z,13.60
2018-12-27T22:55:05.050Z,13.20
2018-12-27T22:57:34.540Z,12.77
2018-12-27T23:00:04.071Z,12.50
2018-12-27T23:02:33.398Z,12.20
2018-12-27T23:05:03.006Z,12.30
2018-12-27T23:07:32.401Z,13.03
2018-12-27T23:10:01.886Z,12.93
2018-12-27T23:12:31.471Z,12.13
2018-12-27T23:15:00.884Z,12.37
2018-12-27T23:17:30.395Z,12.47
2018-12-27T23:19:59.803Z,12.40
2018-12-27T23:22:29.438Z,11.07
2018-12-27T23:24:58.861Z,11.73
2018-12-27T23:27:28.262Z,12.13
2018-12-27T23:29:57.688Z,12.20
2018-12-27T23:32:27.106Z,11.77
2018-12-27T23:34:56.451Z,11.60
2018-12-27T23:37:25.877Z,11.83
2018-12-27T23:39:55.358Z,12.67
2018-12-27T23:42:24.731Z,12.57
2018-12-27T23:44:54.060Z,12.90
2018-12-27T23:47:24.138Z,13.17
2018-12-27T23:49:53.533Z,13.13
2018-12-27T23:52:22.986Z,13.67
2018-12-27T23:54:52.375Z,13.90
2018-12-27T23:57:21.817Z,13.80
2018-12-27T23:59:51.145Z,13.00
